Baudette International Airport
KBDE : now visible

Airfield :











YOU CAN JOIN US ON...

 
LOGIN :

Register | Disclaimer

   EN    FR    IT 

 









Legend :    VFR   Marginal VFR   IFR   Intensive IFR   Very Intensive IFR
Visi :
Ceiling :
>= 8 km
>= 3000ft
5 to 8 km
1000 to 3000 ft
1500m to 5 km
500 to 1000 ft
800 to 1500m
200 to 500 ft
< 800m
< 200 ft
Symbols :   Thunderstorms  Fog  Heavy snow  Heavy precipitations  Wind > 20 kt






- Airport Elevation : 1086 ft


KBDE - Baudette International

CURRENT METAR :
  • 190453Z AUTO 31014KT 9SM OVC013 M15/M18 A3011 RMK AO2 SLP221 T11501178 $

EXPIRED METARs :
  • 190423Z AUTO 31015KT 9SM OVC014 M15/M18 A3009 RMK AO2 T11501178 $
  • 190353Z AUTO 31015KT 10SM OVC016 M14/M18 A3007 RMK AO2 SNE32 SLP210 P0000 T11441178
  • 190323Z AUTO 31017G24KT 4SM -SN OVC016 M14/M17 A3006 RMK AO2 P0000 T11441172
  • 190315Z AUTO 31013KT 2 1/2SM -SN OVC018 M14/M17 A3006 RMK AO2 P0000 T11441172
  • 190253Z AUTO 31016KT 1 1/2SM -SN OVC019 M14/M17 A3005 RMK AO2 SLP202 P0000 60000 T11441172 53024
  • 190239Z AUTO 30018G22KT 1 3/4SM -SN FEW017 OVC023 M14/M17 A3004 RMK AO2 P0000 T11441172

TAF N/A



MET'MAP, your aeronautical weather chart ! - Copyright ORBIFLY December 2007 - Disclaimer

ORBIFLY MET'MAP TEAM :

Programming & Development : Alexandra Zaïnal
Concept & original design : Baudouin d'Aumeries
Assistance for programming : Marc-Olivier Méhu
Technical & hardware support : Manuel Goepfert

Contact : metmap@orbifly.com




SOURCES & CREDITS :

   NOAA       Earth
Advisory